createdAt,value
2023-03-06T00:01:12.864Z,71.91
2023-03-06T00:03:58.858Z,68.06
2023-03-06T00:06:44.842Z,65.41
2023-03-06T00:09:30.639Z,64.99
2023-03-06T00:12:16.629Z,66.29
2023-03-06T00:15:04.058Z,66.34
2023-03-06T00:17:51.627Z,64.86
2023-03-06T00:20:37.569Z,64.22
2023-03-06T00:23:23.395Z,62.37
2023-03-06T00:26:09.254Z,59.62
2023-03-06T00:28:55.251Z,59.56
2023-03-06T00:31:41.175Z,60.10
2023-03-06T00:34:27.259Z,60.62
2023-03-06T00:37:13.288Z,61.18
2023-03-06T00:39:59.126Z,60.11
2023-03-06T00:42:45.051Z,58.88
2023-03-06T00:45:30.892Z,57.92
2023-03-06T00:48:16.923Z,57.98
2023-03-06T00:51:02.924Z,54.81
2023-03-06T00:53:48.726Z,53.14
2023-03-06T00:56:34.564Z,55.00
2023-03-06T00:59:20.473Z,63.34
2023-03-06T01:02:06.459Z,65.88
2023-03-06T01:04:52.404Z,66.84
2023-03-06T01:07:38.412Z,68.43
2023-03-06T01:10:24.435Z,70.39
2023-03-06T01:13:10.377Z,72.00
2023-03-06T01:15:56.208Z,72.98
2023-03-06T01:18:42.156Z,75.07
2023-03-06T01:21:28.000Z,75.83
2023-03-06T01:24:13.933Z,73.23
2023-03-06T01:26:59.952Z,74.55
2023-03-06T01:29:46.282Z,75.75
2023-03-06T01:32:32.202Z,73.50
2023-03-06T01:35:18.786Z,71.87
2023-03-06T01:38:06.671Z,69.68
2023-03-06T01:40:52.586Z,68.96
2023-03-06T01:43:38.563Z,66.95
2023-03-06T01:46:24.521Z,65.66
2023-03-06T01:49:10.370Z,63.64
2023-03-06T01:51:56.168Z,62.52
2023-03-06T01:54:42.074Z,61.44
2023-03-06T01:57:27.984Z,60.45
2023-03-06T02:00:14.230Z,59.59
2023-03-06T02:03:00.260Z,56.50
2023-03-06T02:05:46.195Z,57.70
2023-03-06T02:08:32.004Z,62.56
2023-03-06T02:11:18.019Z,62.45
2023-03-06T02:14:03.844Z,62.65
2023-03-06T02:16:49.722Z,62.49
2023-03-06T02:19:35.529Z,60.90
2023-03-06T02:22:21.386Z,63.06
2023-03-06T02:25:07.213Z,62.48
2023-03-06T02:27:53.142Z,61.34
2023-03-06T02:30:39.052Z,59.60
2023-03-06T02:33:27.128Z,57.78
2023-03-06T02:36:12.995Z,57.21
2023-03-06T02:38:58.894Z,56.27
2023-03-06T02:41:44.801Z,55.91
2023-03-06T02:44:31.065Z,55.73
2023-03-06T02:47:16.980Z,57.01
2023-03-06T02:50:04.861Z,57.04
2023-03-06T02:52:50.629Z,57.13
2023-03-06T02:55:36.568Z,56.93
2023-03-06T02:58:22.603Z,56.85
2023-03-06T03:01:08.416Z,56.46
2023-03-06T03:03:54.273Z,56.34
2023-03-06T03:06:40.012Z,56.31
2023-03-06T03:09:25.857Z,55.81
2023-03-06T03:12:15.281Z,55.79
2023-03-06T03:15:01.069Z,55.68
2023-03-06T03:17:46.941Z,55.62
2023-03-06T03:20:32.659Z,55.62
2023-03-06T03:23:18.500Z,55.57
2023-03-06T03:26:04.409Z,55.33
2023-03-06T03:28:50.357Z,55.41
2023-03-06T03:31:36.187Z,54.97
2023-03-06T03:34:22.124Z,54.69
2023-03-06T03:37:07.943Z,54.60
2023-03-06T03:39:53.825Z,55.22
2023-03-06T03:42:39.808Z,54.81
2023-03-06T03:45:25.664Z,55.31
2023-03-06T03:48:11.585Z,56.49
2023-03-06T03:50:57.622Z,57.36
2023-03-06T03:53:43.505Z,58.84
2023-03-06T03:56:29.451Z,59.36
2023-03-06T03:59:15.429Z,59.44
2023-03-06T04:02:01.356Z,59.14
2023-03-06T04:04:49.426Z,59.57
2023-03-06T04:07:35.290Z,58.57
2023-03-06T04:10:21.244Z,58.60
2023-03-06T04:13:09.854Z,57.78
2023-03-06T04:15:55.715Z,57.06
2023-03-06T04:18:41.597Z,57.51
2023-03-06T04:21:27.488Z,56.89
2023-03-06T04:24:13.284Z,56.58
2023-03-06T04:26:59.181Z,56.65
2023-03-06T04:29:45.041Z,56.12
2023-03-06T04:32:30.969Z,56.03
2023-03-06T04:35:16.983Z,55.77
2023-03-06T04:38:02.945Z,55.53
2023-03-06T04:40:48.839Z,55.81
2023-03-06T04:43:34.806Z,55.14
2023-03-06T04:46:20.748Z,54.76
2023-03-06T04:49:06.593Z,54.64
2023-03-06T04:51:52.470Z,54.59
2023-03-06T04:54:39.830Z,53.94
2023-03-06T04:57:25.727Z,54.03
2023-03-06T05:00:11.600Z,54.35
2023-03-06T05:02:57.386Z,54.48
2023-03-06T05:05:43.454Z,54.12
2023-03-06T05:08:29.254Z,54.27
2023-03-06T05:11:15.123Z,54.55
2023-03-06T05:14:01.088Z,54.70
2023-03-06T05:16:46.743Z,54.21
2023-03-06T05:19:32.728Z,53.65
2023-03-06T05:22:18.578Z,54.13
2023-03-06T05:25:04.437Z,53.73
2023-03-06T05:27:50.482Z,54.03
2023-03-06T05:30:37.168Z,53.66
2023-03-06T05:33:23.140Z,53.74
2023-03-06T05:36:09.161Z,53.82
2023-03-06T05:38:55.067Z,54.24
2023-03-06T05:41:41.340Z,53.95
2023-03-06T05:44:27.078Z,53.69
2023-03-06T05:47:13.013Z,53.50
2023-03-06T05:49:58.892Z,53.31
2023-03-06T05:52:44.769Z,53.83
2023-03-06T05:55:30.536Z,53.29
2023-03-06T05:58:16.315Z,53.70
2023-03-06T06:01:02.141Z,53.67
2023-03-06T06:03:48.078Z,53.54
2023-03-06T06:06:33.931Z,53.55
2023-03-06T06:09:19.955Z,53.55
2023-03-06T06:12:07.858Z,53.48
2023-03-06T06:14:53.629Z,53.31
2023-03-06T06:17:40.132Z,53.58
2023-03-06T06:20:27.284Z,53.63
2023-03-06T06:23:13.127Z,54.52
2023-03-06T06:25:59.142Z,54.41
2023-03-06T06:28:45.045Z,54.12
2023-03-06T06:31:31.138Z,53.05
2023-03-06T06:34:17.012Z,53.03
2023-03-06T06:37:02.873Z,54.01
2023-03-06T06:39:48.845Z,54.18
2023-03-06T06:42:39.685Z,53.40
2023-03-06T06:45:26.055Z,53.64
2023-03-06T06:48:11.920Z,54.04
2023-03-06T06:50:57.835Z,53.76
2023-03-06T06:53:43.602Z,53.87
2023-03-06T06:56:29.486Z,53.99
2023-03-06T06:59:17.362Z,53.90
2023-03-06T07:02:03.539Z,54.07
2023-03-06T07:05:02.977Z,55.26
2023-03-06T07:07:49.731Z,55.43
2023-03-06T07:10:36.040Z,55.15
2023-03-06T07:13:22.029Z,55.04
2023-03-06T07:16:08.259Z,54.73
2023-03-06T07:18:54.626Z,54.45
2023-03-06T07:21:40.563Z,54.67
2023-03-06T07:24:26.981Z,55.99
2023-03-06T07:27:13.320Z,58.48
2023-03-06T07:30:00.452Z,59.65
2023-03-06T07:32:46.502Z,58.42
2023-03-06T07:35:32.545Z,57.47
2023-03-06T07:38:18.514Z,57.57
2023-03-06T07:41:04.366Z,56.95
2023-03-06T07:43:50.207Z,56.50
2023-03-06T07:46:36.137Z,56.02
2023-03-06T07:49:22.107Z,55.76
2023-03-06T07:52:08.185Z,55.40
2023-03-06T07:54:54.488Z,54.78
2023-03-06T07:57:40.379Z,54.82
2023-03-06T08:00:26.438Z,55.31
2023-03-06T08:03:12.772Z,55.13
2023-03-06T08:05:58.830Z,56.12
2023-03-06T08:08:44.729Z,55.77
2023-03-06T08:11:30.728Z,55.43
2023-03-06T08:14:16.760Z,54.50
2023-03-06T08:17:02.654Z,54.69
2023-03-06T08:19:48.628Z,54.61
2023-03-06T08:22:34.480Z,56.40
2023-03-06T08:25:20.281Z,55.19
2023-03-06T08:28:06.623Z,55.12
2023-03-06T08:30:52.658Z,54.62
2023-03-06T08:33:38.541Z,59.89
2023-03-06T08:36:24.646Z,62.50
2023-03-06T08:39:10.619Z,70.28
2023-03-06T08:41:56.617Z,67.57
2023-03-06T08:44:42.555Z,64.93
2023-03-06T08:47:28.515Z,67.19
2023-03-06T08:50:14.395Z,66.97
2023-03-06T08:53:01.871Z,64.12
2023-03-06T08:55:48.705Z,63.01
2023-03-06T08:58:34.553Z,61.53
2023-03-06T09:01:20.916Z,63.22
2023-03-06T09:04:06.727Z,66.37
2023-03-06T09:06:54.574Z,69.21
2023-03-06T09:09:41.660Z,70.73
2023-03-06T09:12:29.282Z,69.44
2023-03-06T09:15:16.846Z,67.38
2023-03-06T09:18:02.769Z,65.49
2023-03-06T09:20:48.577Z,60.98
2023-03-06T09:23:34.578Z,62.78
2023-03-06T09:26:28.021Z,62.46
2023-03-06T09:29:19.151Z,66.04
2023-03-06T09:32:05.170Z,67.91
2023-03-06T09:34:50.961Z,68.67
2023-03-06T09:37:36.964Z,69.95
2023-03-06T09:40:22.831Z,70.81
2023-03-06T09:43:08.732Z,72.80
2023-03-06T09:45:54.723Z,68.58
2023-03-06T09:48:40.686Z,66.45
2023-03-06T09:51:26.621Z,64.11
2023-03-06T09:54:12.516Z,66.29
2023-03-06T09:56:58.517Z,67.34
2023-03-06T09:59:44.315Z,61.90
2023-03-06T10:02:30.227Z,61.69
2023-03-06T10:05:16.531Z,59.14
2023-03-06T10:08:02.923Z,59.51
2023-03-06T10:10:48.809Z,58.47
2023-03-06T10:13:34.731Z,58.21
2023-03-06T10:16:20.677Z,61.66
2023-03-06T10:19:06.627Z,60.72
2023-03-06T10:21:52.542Z,57.99
2023-03-06T10:24:38.506Z,57.24
2023-03-06T10:27:24.481Z,55.59
2023-03-06T10:30:10.491Z,54.21
2023-03-06T10:32:56.379Z,53.08
2023-03-06T10:35:42.293Z,51.26
2023-03-06T10:38:28.267Z,49.00
2023-03-06T10:41:14.218Z,49.74
2023-03-06T10:44:00.414Z,49.79
2023-03-06T10:46:46.348Z,51.41
2023-03-06T10:49:32.239Z,51.87
2023-03-06T10:52:18.096Z,54.16
2023-03-06T10:55:03.974Z,58.23
2023-03-06T10:57:49.912Z,60.26
2023-03-06T11:00:35.810Z,52.29
2023-03-06T11:03:21.683Z,52.87
2023-03-06T11:06:07.739Z,50.03
2023-03-06T11:08:53.648Z,48.37
2023-03-06T11:11:39.670Z,50.31
2023-03-06T11:14:27.663Z,50.68
2023-03-06T11:17:13.655Z,51.85
2023-03-06T11:19:59.698Z,49.37
2023-03-06T11:22:47.539Z,54.84
2023-03-06T11:25:34.853Z,54.25
2023-03-06T11:28:20.827Z,52.51
2023-03-06T11:31:06.813Z,53.71
2023-03-06T11:33:52.823Z,54.74
2023-03-06T11:36:38.983Z,53.84
2023-03-06T11:39:25.130Z,53.56
2023-03-06T11:42:11.121Z,55.16
2023-03-06T11:44:57.088Z,53.73
2023-03-06T11:47:42.908Z,53.87
2023-03-06T11:50:29.003Z,54.27
2023-03-06T11:53:15.393Z,54.71
2023-03-06T11:56:01.261Z,51.47
2023-03-06T11:58:47.104Z,47.93
2023-03-06T12:01:32.970Z,45.10
2023-03-06T12:04:18.714Z,48.10
2023-03-06T12:07:07.221Z,49.42
2023-03-06T12:10:01.074Z,49.82
2023-03-06T12:12:48.540Z,47.72
2023-03-06T12:15:34.436Z,48.35
2023-03-06T12:18:21.454Z,45.08
2023-03-06T12:21:07.400Z,45.18
2023-03-06T12:23:53.136Z,46.99
2023-03-06T12:26:38.997Z,42.25
2023-03-06T12:29:25.136Z,40.27
2023-03-06T12:32:11.102Z,39.96
2023-03-06T12:34:57.069Z,38.05
2023-03-06T12:37:42.969Z,38.08
2023-03-06T12:40:29.011Z,39.88
2023-03-06T12:43:14.933Z,38.71
2023-03-06T12:46:00.825Z,39.30
2023-03-06T12:48:46.735Z,38.45
2023-03-06T12:51:32.805Z,39.34
2023-03-06T12:54:18.686Z,38.11
2023-03-06T12:57:04.479Z,37.70
2023-03-06T12:59:50.477Z,39.77
2023-03-06T13:02:36.427Z,38.96
2023-03-06T13:05:26.732Z,37.06
2023-03-06T13:08:13.089Z,35.47
2023-03-06T13:10:58.883Z,33.45
2023-03-06T13:13:44.858Z,35.94
2023-03-06T13:16:30.821Z,33.95
2023-03-06T13:19:16.900Z,35.37
2023-03-06T13:22:02.875Z,35.78
2023-03-06T13:24:50.819Z,35.17
2023-03-06T13:27:38.642Z,35.47
2023-03-06T13:30:24.623Z,35.37
2023-03-06T13:33:10.551Z,39.71
2023-03-06T13:35:56.488Z,36.06
2023-03-06T13:38:42.625Z,37.91
2023-03-06T13:41:28.480Z,35.80
2023-03-06T13:44:14.479Z,37.64
2023-03-06T13:47:00.414Z,37.99
2023-03-06T13:49:46.348Z,35.85
2023-03-06T13:52:32.333Z,36.05
2023-03-06T13:55:24.910Z,35.59
2023-03-06T13:58:10.968Z,36.86
2023-03-06T14:00:56.844Z,34.87
2023-03-06T14:03:42.880Z,36.91
2023-03-06T14:06:28.638Z,33.88
2023-03-06T14:09:14.498Z,34.63
2023-03-06T14:12:00.503Z,36.09
2023-03-06T14:14:46.601Z,36.01
2023-03-06T14:17:32.700Z,35.71
2023-03-06T14:20:18.672Z,36.21
2023-03-06T14:23:04.611Z,36.58
2023-03-06T14:25:50.444Z,36.53
2023-03-06T14:28:36.216Z,35.72
2023-03-06T14:31:22.225Z,36.27
2023-03-06T14:34:08.291Z,37.23
2023-03-06T14:36:54.331Z,37.00
2023-03-06T14:39:40.371Z,37.41
2023-03-06T14:42:26.166Z,37.09
2023-03-06T14:45:12.087Z,37.27
2023-03-06T14:47:58.128Z,37.49
2023-03-06T14:50:44.036Z,37.20
2023-03-06T14:53:30.009Z,37.30
2023-03-06T14:56:15.926Z,36.93
2023-03-06T14:59:01.801Z,36.85
2023-03-06T15:01:47.779Z,37.36
2023-03-06T15:04:36.239Z,37.10
2023-03-06T15:07:26.099Z,35.49
2023-03-06T15:10:11.966Z,35.63
2023-03-06T15:12:57.844Z,34.70
2023-03-06T15:15:43.692Z,34.27
2023-03-06T15:18:29.652Z,35.47
2023-03-06T15:21:15.539Z,34.84
2023-03-06T15:24:01.514Z,34.28
2023-03-06T15:26:47.470Z,35.19
2023-03-06T15:29:33.288Z,34.11
2023-03-06T15:32:19.165Z,34.85
2023-03-06T15:35:05.149Z,35.54
2023-03-06T15:37:51.081Z,36.94
2023-03-06T15:40:37.060Z,36.08
2023-03-06T15:43:22.896Z,34.84
2023-03-06T15:46:08.981Z,34.92
2023-03-06T15:48:54.977Z,35.01
2023-03-06T15:51:40.932Z,34.56
2023-03-06T15:54:26.800Z,34.83
2023-03-06T15:57:12.784Z,35.07
2023-03-06T15:59:58.786Z,35.42
2023-03-06T16:02:45.707Z,37.75
2023-03-06T16:05:34.702Z,42.49
2023-03-06T16:08:20.636Z,40.60
2023-03-06T16:11:06.569Z,42.40
2023-03-06T16:13:52.439Z,43.36
2023-03-06T16:16:38.431Z,45.32
2023-03-06T16:19:26.294Z,46.84
2023-03-06T16:22:13.518Z,47.91
2023-03-06T16:24:59.503Z,47.44
2023-03-06T16:27:45.635Z,48.55
2023-03-06T16:30:31.607Z,47.60
2023-03-06T16:33:17.574Z,48.76
2023-03-06T16:36:03.543Z,49.08
2023-03-06T16:38:49.420Z,49.78
2023-03-06T16:41:36.244Z,49.11
2023-03-06T16:44:25.622Z,49.37
2023-03-06T16:47:11.517Z,49.90
2023-03-06T16:49:57.611Z,50.00
2023-03-06T16:52:43.805Z,49.94
2023-03-06T16:55:29.712Z,49.66
2023-03-06T16:58:15.690Z,50.35
2023-03-06T17:01:01.646Z,50.55
2023-03-06T17:03:47.933Z,50.68
2023-03-06T17:06:33.931Z,51.12
2023-03-06T17:09:20.859Z,51.33
2023-03-06T17:12:06.796Z,49.37
2023-03-06T17:14:52.647Z,52.74
2023-03-06T17:17:40.418Z,53.94
2023-03-06T17:20:26.425Z,55.09
2023-03-06T17:23:12.429Z,55.26
2023-03-06T17:25:58.367Z,55.66
2023-03-06T17:28:44.359Z,57.15
2023-03-06T17:31:30.362Z,57.08
2023-03-06T17:34:16.282Z,56.62
2023-03-06T17:37:02.279Z,57.40
2023-03-06T17:39:48.258Z,56.16
2023-03-06T17:42:34.210Z,55.00
2023-03-06T17:45:20.358Z,55.80
2023-03-06T17:48:06.195Z,55.64
2023-03-06T17:50:52.124Z,56.97
2023-03-06T17:53:38.075Z,57.29
2023-03-06T17:56:23.965Z,56.93
2023-03-06T17:59:09.922Z,57.76
2023-03-06T18:01:55.857Z,56.80
2023-03-06T18:04:41.788Z,56.09
2023-03-06T18:07:29.896Z,55.68
2023-03-06T18:10:15.776Z,56.33
2023-03-06T18:13:01.728Z,56.13
2023-03-06T18:15:47.642Z,56.83
2023-03-06T18:18:33.993Z,57.54
2023-03-06T18:21:19.958Z,57.73
2023-03-06T18:24:05.961Z,58.53
2023-03-06T18:26:51.874Z,59.66
2023-03-06T18:29:37.973Z,59.43
2023-03-06T18:32:23.898Z,57.93
2023-03-06T18:35:09.712Z,58.57
2023-03-06T18:37:55.665Z,59.09
2023-03-06T18:40:41.502Z,59.08
2023-03-06T18:43:27.455Z,59.21
2023-03-06T18:46:13.547Z,59.25
2023-03-06T18:48:59.827Z,58.79
2023-03-06T18:51:45.781Z,57.57
2023-03-06T18:54:31.692Z,56.72
2023-03-06T18:57:17.534Z,57.67
2023-03-06T19:00:05.435Z,58.16
2023-03-06T19:02:51.352Z,58.35
2023-03-06T19:05:37.214Z,56.33
2023-03-06T19:08:23.124Z,53.27
2023-03-06T19:11:09.033Z,52.06
2023-03-06T19:13:55.347Z,52.10
2023-03-06T19:16:41.649Z,53.87
2023-03-06T19:19:27.560Z,56.16
2023-03-06T19:22:13.445Z,56.09
2023-03-06T19:25:06.601Z,53.35
2023-03-06T19:27:53.599Z,52.94
2023-03-06T19:30:39.343Z,51.85
2023-03-06T19:33:26.243Z,50.61
2023-03-06T19:36:12.234Z,50.27
2023-03-06T19:38:58.097Z,49.73
2023-03-06T19:41:44.047Z,48.28
2023-03-06T19:44:29.833Z,47.76
2023-03-06T19:47:15.827Z,46.81
2023-03-06T19:50:01.870Z,46.77
2023-03-06T19:52:48.261Z,46.91
2023-03-06T19:55:34.338Z,49.63
2023-03-06T19:58:20.175Z,47.78
2023-03-06T20:01:06.334Z,48.36
2023-03-06T20:03:52.591Z,49.65
2023-03-06T20:06:38.506Z,48.32
2023-03-06T20:09:24.437Z,48.61
2023-03-06T20:12:10.292Z,47.77
2023-03-06T20:14:56.206Z,47.97
2023-03-06T20:17:42.228Z,47.13
2023-03-06T20:20:28.636Z,46.88
2023-03-06T20:23:16.540Z,46.17
2023-03-06T20:26:02.900Z,45.65
2023-03-06T20:28:48.904Z,45.40
2023-03-06T20:31:34.728Z,45.21
2023-03-06T20:34:20.768Z,46.29
2023-03-06T20:37:06.602Z,45.49
2023-03-06T20:39:52.462Z,45.55
2023-03-06T20:42:38.951Z,44.95
2023-03-06T20:45:24.884Z,44.84
2023-03-06T20:48:10.625Z,44.56
2023-03-06T20:50:56.714Z,44.02
2023-03-06T20:53:42.522Z,43.72
2023-03-06T20:56:28.398Z,43.16
2023-03-06T20:59:14.292Z,44.45
2023-03-06T21:02:00.404Z,44.05
2023-03-06T21:04:46.669Z,45.06
2023-03-06T21:07:32.625Z,44.96
2023-03-06T21:10:18.553Z,44.45
2023-03-06T21:13:04.644Z,43.19
2023-03-06T21:15:50.559Z,43.03
2023-03-06T21:18:36.489Z,43.87
2023-03-06T21:21:22.351Z,43.99
2023-03-06T21:24:08.212Z,44.12
2023-03-06T21:26:54.246Z,45.31
2023-03-06T21:29:40.026Z,46.12
2023-03-06T21:32:25.889Z,45.50
2023-03-06T21:35:11.990Z,44.81
2023-03-06T21:37:57.744Z,44.97
2023-03-06T21:40:43.695Z,44.77
2023-03-06T21:43:29.499Z,44.51
2023-03-06T21:46:15.569Z,44.29
2023-03-06T21:49:01.679Z,44.23
2023-03-06T21:51:47.664Z,44.28
2023-03-06T21:54:33.694Z,43.92
2023-03-06T21:57:19.508Z,44.12
2023-03-06T22:00:05.475Z,43.99
2023-03-06T22:02:51.486Z,44.54
2023-03-06T22:05:37.197Z,44.46
2023-03-06T22:08:23.179Z,44.33
2023-03-06T22:11:09.137Z,44.06
2023-03-06T22:13:55.050Z,44.78
2023-03-06T22:16:41.562Z,44.76
2023-03-06T22:19:27.573Z,44.86
2023-03-06T22:22:13.577Z,44.69
2023-03-06T22:25:01.509Z,44.49
2023-03-06T22:27:48.994Z,44.27
2023-03-06T22:30:34.877Z,44.27
2023-03-06T22:33:21.026Z,44.06
2023-03-06T22:36:06.959Z,44.56
2023-03-06T22:38:53.034Z,44.52
2023-03-06T22:41:39.021Z,45.20
2023-03-06T22:44:24.831Z,45.34
2023-03-06T22:47:10.777Z,45.46
2023-03-06T22:49:56.782Z,45.21
2023-03-06T22:52:42.552Z,44.43
2023-03-06T22:55:28.433Z,45.05
2023-03-06T22:58:14.210Z,43.88
2023-03-06T23:01:00.240Z,45.44
2023-03-06T23:03:46.135Z,44.61
2023-03-06T23:06:32.047Z,44.70
2023-03-06T23:09:18.565Z,44.11
2023-03-06T23:12:04.469Z,44.03
2023-03-06T23:14:50.391Z,43.83
2023-03-06T23:17:36.195Z,42.92
2023-03-06T23:20:21.979Z,43.21
2023-03-06T23:23:07.928Z,44.08
2023-03-06T23:25:53.796Z,43.98
2023-03-06T23:28:39.602Z,43.55
2023-03-06T23:31:25.553Z,43.55
2023-03-06T23:34:11.512Z,43.55
2023-03-06T23:36:57.414Z,43.22
2023-03-06T23:39:43.446Z,43.44
2023-03-06T23:42:29.302Z,43.47
2023-03-06T23:45:15.231Z,43.10
2023-03-06T23:48:03.106Z,43.05
2023-03-06T23:50:48.963Z,42.76
2023-03-06T23:53:34.848Z,42.91
2023-03-06T23:56:20.881Z,43.06
2023-03-06T23:59:06.658Z,43.34
